Time;durP1;ratioP1;P1;durP2;ratioP2;P2;SDS_P1;SDS_P2;PMS_P1;PMS_P2;Temp;Humidity;BMP_temperature;BMP_pressure;BME280_temperature;BME280_humidity;BME280_pressure;Samples;Min_cycle;Max_cycle;Signal;HPM_P1;HPM_P2
2022/11/19 00:01:21;;;;;;;12.43;8.88;;;1.30;99.90;;;;;;5107316;28;20070;-79
2022/11/19 00:03:47;;;;;;;12.20;8.48;;;1.30;99.90;;;;;;5123654;27;20043;-79
2022/11/19 00:06:15;;;;;;;12.00;8.80;;;1.30;99.90;;;;;;5085615;28;20047;-79
2022/11/19 00:08:42;;;;;;;10.02;7.63;;;1.30;99.90;;;;;;5099380;28;20554;-79
2022/11/19 00:12:53;;;;;;;10.85;7.88;;;1.30;99.90;;;;;;5099589;28;20035;-79
2022/11/19 00:14:06;;;;;;;10.27;7.60;;;1.30;99.90;;;;;;5099814;28;20078;-79
2022/11/19 00:16:35;;;;;;;9.63;7.30;;;1.30;99.90;;;;;;5100749;28;20109;-79
2022/11/19 00:19:00;;;;;;;9.57;6.95;;;1.30;99.90;;;;;;5101042;28;20039;-79
2022/11/19 00:21:26;;;;;;;8.95;7.30;;;1.30;99.90;;;;;;5098212;28;20465;-80
2022/11/19 00:23:53;;;;;;;10.65;7.70;;;1.50;99.90;;;;;;5099885;28;20047;-79
2022/11/19 00:26:19;;;;;;;8.55;6.75;;;1.50;99.90;;;;;;5100232;28;20108;-79
2022/11/19 00:28:44;;;;;;;9.95;6.97;;;1.30;99.90;;;;;;5102071;28;20454;-79
2022/11/19 00:31:12;;;;;;;8.77;6.70;;;1.30;99.90;;;;;;5100296;28;20040;-79
2022/11/19 00:33:42;;;;;;;8.85;6.30;;;1.30;99.90;;;;;;5105360;28;20051;-78
2022/11/19 00:36:09;;;;;;;7.93;6.20;;;1.30;99.90;;;;;;5107553;28;20036;-79
2022/11/19 00:38:35;;;;;;;9.85;6.40;;;1.30;99.90;;;;;;5110091;28;20035;-79
2022/11/19 00:41:01;;;;;;;8.82;6.57;;;1.30;99.90;;;;;;5104758;27;20229;-79
2022/11/19 00:46:18;;;;;;;9.15;6.40;;;1.40;99.90;;;;;;5105026;28;20162;-79
2022/11/19 00:48:45;;;;;;;7.63;5.65;;;1.20;99.90;;;;;;5102332;28;20092;-79
2022/11/19 00:51:11;;;;;;;8.18;6.07;;;1.20;99.90;;;;;;5095023;28;20382;-79
2022/11/19 00:53:37;;;;;;;7.85;6.25;;;1.30;99.90;;;;;;5106479;28;20051;-79
2022/11/19 00:56:08;;;;;;;7.22;5.25;;;1.20;99.90;;;;;;5105315;28;20054;-79
2022/11/19 00:58:34;;;;;;;7.28;5.18;;;1.20;99.90;;;;;;5100720;27;20047;-79
2022/11/19 01:00:59;;;;;;;6.75;4.93;;;1.40;99.90;;;;;;5105014;28;20543;-79
2022/11/19 01:03:25;;;;;;;7.03;4.60;;;1.20;99.90;;;;;;5103130;28;20059;-78
2022/11/19 01:05:51;;;;;;;6.45;4.97;;;1.20;99.90;;;;;;5098990;28;20110;-79
2022/11/19 01:08:17;;;;;;;5.40;4.63;;;1.20;99.90;;;;;;5099711;28;20130;-79
2022/11/19 01:10:44;;;;;;;5.80;4.90;;;1.10;99.90;;;;;;5102066;28;20079;-79
2022/11/19 01:15:54;;;;;;;7.45;4.18;;;1.20;99.90;;;;;;5096866;28;20220;-79
2022/11/19 01:18:20;;;;;;;7.40;3.92;;;1.10;99.90;;;;;;5079650;28;20138;-78
2022/11/19 01:20:46;;;;;;;6.20;4.15;;;1.10;99.90;;;;;;5097881;28;20051;-78
2022/11/19 01:23:12;;;;;;;5.70;4.40;;;1.10;99.90;;;;;;5099422;28;20055;-79
2022/11/19 01:25:38;;;;;;;6.47;4.53;;;1.00;99.90;;;;;;5097802;28;20042;-79
2022/11/19 01:28:04;;;;;;;5.40;4.22;;;1.00;99.90;;;;;;5100788;28;20048;-78
2022/11/19 01:30:30;;;;;;;5.93;4.05;;;1.00;99.90;;;;;;5099708;28;20046;-79
2022/11/19 01:32:56;;;;;;;6.90;4.95;;;0.90;99.90;;;;;;5104089;28;20500;-79
2022/11/19 01:35:21;;;;;;;6.00;4.75;;;0.90;99.90;;;;;;5105854;28;20092;-79
2022/11/19 01:37:47;;;;;;;5.15;4.22;;;0.90;99.90;;;;;;5087292;28;20786;-79
2022/11/19 01:40:13;;;;;;;5.70;4.55;;;0.80;99.90;;;;;;5086550;28;20409;-78
2022/11/19 01:42:48;;;;;;;5.72;3.97;;;0.80;99.90;;;;;;5102650;28;20131;-79
2022/11/19 01:45:47;;;;;;;6.18;4.53;;;0.70;99.90;;;;;;5106413;28;20077;-79
2022/11/19 01:48:29;;;;;;;6.45;4.30;;;0.70;99.90;;;;;;5108216;28;20048;-78
2022/11/19 01:51:23;;;;;;;6.03;4.88;;;0.60;99.90;;;;;;5107554;28;20052;-78
2022/11/19 01:53:50;;;;;;;5.80;4.30;;;0.60;99.90;;;;;;5083257;28;20048;-78
2022/11/19 01:56:18;;;;;;;4.68;4.18;;;0.50;99.90;;;;;;5100537;28;20052;-79
2022/11/19 01:58:47;;;;;;;6.40;4.28;;;0.50;99.90;;;;;;5103451;28;20044;-78
2022/11/19 02:01:16;;;;;;;5.82;4.38;;;0.50;99.90;;;;;;5103422;28;20056;-79
2022/11/19 02:03:42;;;;;;;5.55;4.55;;;0.50;99.90;;;;;;5103117;28;20111;-79
2022/11/19 02:06:08;;;;;;;7.07;4.53;;;0.70;99.90;;;;;;5095813;28;20071;-78
2022/11/19 02:08:38;;;;;;;7.55;4.90;;;0.40;99.90;;;;;;5098052;28;20129;-78
2022/11/19 02:11:16;;;;;;;5.70;4.22;;;0.40;99.90;;;;;;5096558;28;20973;-78
2022/11/19 02:14:07;;;;;;;7.20;4.63;;;0.40;99.90;;;;;;5099364;28;20051;-78
2022/11/19 02:16:56;;;;;;;6.15;4.55;;;0.30;99.90;;;;;;5102082;28;20623;-78
2022/11/19 02:20:02;;;;;;;5.65;4.68;;;0.30;99.90;;;;;;5097516;28;20082;-79
2022/11/19 02:23:03;;;;;;;6.07;4.25;;;0.30;99.90;;;;;;5082821;28;20100;-78
2022/11/19 02:25:37;;;;;;;5.03;4.03;;;0.20;99.90;;;;;;5099617;28;20043;-78
2022/11/19 02:28:25;;;;;;;5.22;4.13;;;0.20;99.90;;;;;;5102908;28;20073;-77
2022/11/19 02:30:54;;;;;;;5.53;4.00;;;0.10;99.90;;;;;;5102991;28;20084;-78
2022/11/19 02:33:28;;;;;;;5.68;4.28;;;1.50;99.90;;;;;;5103931;28;20043;-78
2022/11/19 02:36:21;;;;;;;5.35;4.60;;;0.10;99.90;;;;;;5103133;28;20425;-78
2022/11/19 02:38:57;;;;;;;5.78;3.88;;;0.10;99.90;;;;;;5102061;28;20039;-78
2022/11/19 02:41:37;;;;;;;5.03;3.95;;;0.00;99.90;;;;;;5107128;28;20058;-78
2022/11/19 02:47:11;;;;;;;5.03;4.30;;;0.00;99.90;;;;;;5104238;28;20048;-78
2022/11/19 02:49:44;;;;;;;6.90;4.47;;;-0.10;99.90;;;;;;5083676;28;20517;-78
2022/11/19 02:52:13;;;;;;;;;;;-0.10;99.90;;;;;;5107749;28;20044;-78
2022/11/19 02:54:38;;;;;;;5.88;4.03;;;-0.10;99.90;;;;;;5105676;28;19923;-78
2022/11/19 02:57:04;;;;;;;5.57;4.10;;;-0.10;99.90;;;;;;5106910;28;20508;-78
2022/11/19 03:05:34;;;;;;;6.55;4.78;;;-0.20;99.90;;;;;;5110499;28;20047;-78
2022/11/19 03:08:00;;;;;;;6.57;4.47;;;-0.20;99.90;;;;;;5108628;28;20051;-78
2022/11/19 03:10:35;;;;;;;6.78;4.40;;;-0.20;99.90;;;;;;5108747;28;20039;-78
2022/11/19 03:16:40;;;;;;;5.40;3.88;;;-0.20;99.90;;;;;;5105950;28;20093;-78
2022/11/19 03:18:53;;;;;;;7.03;3.90;;;-0.20;99.90;;;;;;5110535;28;20593;-78
2022/11/19 03:21:34;;;;;;;5.97;3.80;;;-0.30;99.90;;;;;;5097474;28;20417;-78
2022/11/19 03:24:05;;;;;;;4.88;3.70;;;-0.20;99.90;;;;;;5108050;28;20071;-78
2022/11/19 03:26:33;;;;;;;7.88;4.47;;;-0.30;99.90;;;;;;5108742;28;20086;-78
2022/11/19 03:29:04;;;;;;;5.82;4.13;;;0.40;99.90;;;;;;5107961;28;20501;-78
2022/11/19 03:31:33;;;;;;;5.20;3.78;;;-0.40;99.90;;;;;;5089241;28;20043;-78
2022/11/19 03:34:07;;;;;;;5.65;3.88;;;-0.40;99.90;;;;;;5107624;28;20074;-78
2022/11/19 03:36:37;;;;;;;4.45;3.65;;;-0.40;99.90;;;;;;5107749;28;20074;-77
2022/11/19 03:39:07;;;;;;;6.65;3.80;;;-0.50;99.90;;;;;;5106643;28;20051;-78
2022/11/19 03:41:34;;;;;;;6.15;3.78;;;-0.50;99.90;;;;;;5102949;28;20051;-78
2022/11/19 03:44:06;;;;;;;4.82;3.63;;;-0.50;99.90;;;;;;5107148;28;20319;-78
2022/11/19 03:46:36;;;;;;;5.53;3.77;;;-0.50;99.90;;;;;;5089261;28;20686;-78
2022/11/19 03:49:04;;;;;;;4.90;3.60;;;-0.50;99.90;;;;;;5097339;28;20404;-77
2022/11/19 03:51:55;;;;;;;5.55;4.00;;;-0.50;99.90;;;;;;5116721;27;20547;-77
2022/11/19 03:54:21;;;;;;;5.70;3.65;;;-0.60;99.90;;;;;;5099546;28;20093;-77
2022/11/19 03:56:48;;;;;;;4.72;3.67;;;-0.60;99.90;;;;;;5099408;28;20127;-77
2022/11/19 03:59:15;;;;;;;5.35;4.00;;;-0.70;99.90;;;;;;5101339;28;20167;-76
2022/11/19 04:01:43;;;;;;;6.43;4.13;;;-0.60;99.90;;;;;;5102928;28;20051;-77
2022/11/19 04:06:53;;;;;;;7.53;3.83;;;-0.70;99.90;;;;;;5099215;28;20403;-77
2022/11/19 04:09:19;;;;;;;4.80;3.70;;;-1.10;99.90;;;;;;5107336;28;20409;-76
2022/11/19 04:11:44;;;;;;;4.88;3.58;;;-0.70;99.90;;;;;;5108710;28;20043;-77
2022/11/19 04:14:10;;;;;;;6.15;4.20;;;-0.80;99.90;;;;;;5107967;28;20070;-76
2022/11/19 04:16:35;;;;;;;5.78;4.20;;;-0.70;99.90;;;;;;5106916;28;20234;-77
2022/11/19 04:19:01;;;;;;;5.93;3.78;;;-0.70;99.90;;;;;;5110284;28;20047;-76
2022/11/19 04:21:26;;;;;;;5.15;4.20;;;-0.70;99.90;;;;;;5105995;28;20141;-77
2022/11/19 04:23:52;;;;;;;4.47;3.55;;;-0.80;99.90;;;;;;5107234;28;20450;-76
2022/11/19 04:26:18;;;;;;;5.57;3.88;;;-0.80;99.90;;;;;;5106810;28;20076;-77
2022/11/19 04:28:43;;;;;;;5.30;3.90;;;-0.80;99.90;;;;;;5106983;28;20079;-77
2022/11/19 04:31:09;;;;;;;4.97;3.72;;;-0.80;99.90;;;;;;5105074;27;20434;-77
2022/11/19 04:33:34;;;;;;;5.65;4.28;;;-0.90;99.90;;;;;;5104290;28;20039;-77
2022/11/19 04:36:00;;;;;;;5.50;4.55;;;-0.90;99.90;;;;;;5106438;28;20126;-77
2022/11/19 04:38:25;;;;;;;5.07;3.80;;;-0.90;99.90;;;;;;5108980;28;20039;-77
2022/11/19 04:40:51;;;;;;;5.07;3.90;;;-0.90;99.90;;;;;;5106936;28;20075;-77
2022/11/19 04:43:16;;;;;;;5.82;4.15;;;-0.90;99.90;;;;;;5105392;28;20040;-77
2022/11/19 04:45:42;;;;;;;6.47;4.38;;;-0.70;99.90;;;;;;5109868;28;20458;-77
2022/11/19 04:48:07;;;;;;;10.15;3.80;;;-1.00;99.90;;;;;;5105973;28;20259;-77
2022/11/19 04:50:33;;;;;;;5.75;3.83;;;-1.00;99.90;;;;;;5106092;27;20428;-77
2022/11/19 04:52:59;;;;;;;6.85;4.15;;;-1.00;99.90;;;;;;5106453;28;20043;-77
2022/11/19 04:55:24;;;;;;;7.90;4.57;;;-1.00;99.90;;;;;;5106752;28;20051;-77
2022/11/19 04:57:51;;;;;;;5.38;3.85;;;-1.10;99.90;;;;;;5087696;28;20392;-77
2022/11/19 05:00:17;;;;;;;5.50;4.13;;;-1.10;99.90;;;;;;5105331;28;20635;-77
2022/11/19 05:02:43;;;;;;;6.60;4.78;;;-1.10;99.90;;;;;;5105334;28;20078;-77
2022/11/19 05:05:09;;;;;;;6.43;4.15;;;-1.10;99.90;;;;;;5105310;28;20082;-77
2022/11/19 05:07:34;;;;;;;5.95;4.00;;;-1.10;99.90;;;;;;5107492;28;20043;-78
2022/11/19 05:10:00;;;;;;;6.38;4.30;;;-1.20;99.90;;;;;;5106793;28;20401;-77
2022/11/19 05:12:26;;;;;;;6.78;3.83;;;-1.20;99.90;;;;;;5101254;28;20074;-78
2022/11/19 05:14:51;;;;;;;5.93;3.95;;;-1.20;99.90;;;;;;5107272;28;20052;-78
2022/11/19 05:17:17;;;;;;;5.43;3.60;;;-1.20;99.90;;;;;;5105726;28;20108;-79
2022/11/19 05:19:43;;;;;;;6.18;4.07;;;-1.20;99.90;;;;;;5089453;28;20039;-78
2022/11/19 05:22:08;;;;;;;6.40;4.55;;;-1.20;99.90;;;;;;5104446;28;20075;-79
2022/11/19 05:24:34;;;;;;;5.15;3.83;;;-1.20;99.90;;;;;;5107440;28;20054;-79
2022/11/19 05:27:02;;;;;;;6.80;4.03;;;-1.30;99.90;;;;;;5106597;28;20085;-78
2022/11/19 05:29:27;;;;;;;5.80;4.20;;;-1.20;99.90;;;;;;5102751;28;20043;-78
2022/11/19 05:31:53;;;;;;;8.30;4.45;;;-1.30;99.90;;;;;;5082728;28;20047;-78
2022/11/19 05:34:21;;;;;;;5.55;3.95;;;-1.30;99.90;;;;;;5072178;28;20047;-78
2022/11/19 05:36:47;;;;;;;5.97;4.10;;;-1.30;99.90;;;;;;5105180;28;20047;-78
2022/11/19 05:39:12;;;;;;;7.18;4.07;;;-1.40;99.90;;;;;;5105437;28;20054;-77
2022/11/19 05:41:38;;;;;;;5.50;4.20;;;-1.40;99.90;;;;;;5085645;28;20118;-77
2022/11/19 05:44:04;;;;;;;6.13;4.32;;;-1.40;99.90;;;;;;5102628;27;20039;-77
2022/11/19 05:46:29;;;;;;;7.32;4.80;;;-1.40;99.90;;;;;;5096911;28;20046;-77
2022/11/19 05:48:55;;;;;;;8.95;4.72;;;-1.40;99.90;;;;;;5087426;28;20052;-77
2022/11/19 05:51:21;;;;;;;6.93;4.88;;;-1.40;99.90;;;;;;5082990;28;20087;-77
2022/11/19 05:53:46;;;;;;;6.57;4.78;;;-1.40;99.90;;;;;;5096137;28;20036;-78
2022/11/19 05:56:12;;;;;;;5.50;4.35;;;-1.40;99.90;;;;;;5107029;28;20130;-78
2022/11/19 05:58:37;;;;;;;5.68;4.43;;;-1.50;99.90;;;;;;5103872;28;20047;-78
2022/11/19 06:01:03;;;;;;;7.40;4.97;;;-1.50;99.90;;;;;;5100116;28;20071;-78
2022/11/19 06:03:28;;;;;;;6.55;4.85;;;-1.50;99.90;;;;;;5097428;28;20087;-77
2022/11/19 06:05:54;;;;;;;8.93;5.32;;;-1.50;99.90;;;;;;5097161;28;20050;-77
2022/11/19 06:08:19;;;;;;;7.50;5.07;;;-1.50;99.90;;;;;;5097639;28;20094;-77
2022/11/19 06:10:45;;;;;;;7.70;5.45;;;-1.50;99.90;;;;;;5096997;28;20088;-77
2022/11/19 06:13:10;;;;;;;7.75;5.32;;;-1.50;99.90;;;;;;5096805;28;20055;-77
2022/11/19 06:15:36;;;;;;;8.32;5.38;;;-1.50;99.90;;;;;;5097140;27;20122;-77
2022/11/19 06:18:02;;;;;;;9.38;5.47;;;-1.50;99.90;;;;;;5103643;28;20653;-77
2022/11/19 06:20:28;;;;;;;8.82;5.90;;;-1.60;99.90;;;;;;5106761;28;20050;-77
2022/11/19 06:22:53;;;;;;;8.10;5.85;;;-1.50;99.90;;;;;;5101641;28;20040;-78
2022/11/19 06:25:19;;;;;;;8.30;5.68;;;-1.60;99.90;;;;;;5088646;28;20051;-78
2022/11/19 06:27:44;;;;;;;8.05;5.97;;;-1.60;99.90;;;;;;5105528;28;20047;-77
2022/11/19 06:30:11;;;;;;;8.60;6.35;;;-1.60;99.90;;;;;;5101453;28;20534;-77
2022/11/19 06:32:36;;;;;;;9.45;6.22;;;-1.60;99.90;;;;;;5101384;28;20074;-77
2022/11/19 06:35:02;;;;;;;9.13;6.47;;;-1.60;99.90;;;;;;5088078;28;20074;-77
2022/11/19 06:37:28;;;;;;;9.80;5.93;;;-1.60;99.90;;;;;;5105454;28;20073;-77
2022/11/19 06:39:54;;;;;;;9.10;6.25;;;-1.50;99.90;;;;;;5083312;28;20052;-77
2022/11/19 06:42:35;;;;;;;10.65;6.65;;;-1.50;99.90;;;;;;5104258;28;20051;-77
2022/11/19 06:45:06;;;;;;;10.15;6.57;;;-1.60;99.90;;;;;;5105208;28;20046;-77
2022/11/19 06:47:33;;;;;;;8.73;6.30;;;-1.60;99.90;;;;;;5102329;28;20048;-77
2022/11/19 06:49:58;;;;;;;11.02;6.70;;;-1.30;99.90;;;;;;5087923;28;20506;-77
2022/11/19 06:52:24;;;;;;;11.73;7.15;;;-1.60;99.90;;;;;;5087933;28;20059;-77
2022/11/19 06:54:50;;;;;;;11.05;7.13;;;-1.60;99.90;;;;;;5086634;28;20386;-77
2022/11/19 06:57:16;;;;;;;10.77;6.57;;;-0.30;99.90;;;;;;5088657;28;20386;-77
2022/11/19 06:59:41;;;;;;;10.48;6.97;;;-1.70;99.90;;;;;;5106388;28;20159;-77
2022/11/19 07:02:09;;;;;;;10.63;6.78;;;-1.70;99.90;;;;;;5106863;28;20055;-76
2022/11/19 07:04:35;;;;;;;10.32;7.00;;;-1.70;99.90;;;;;;5107455;28;20043;-76
2022/11/19 07:07:01;;;;;;;10.65;7.22;;;-1.50;99.90;;;;;;5105461;28;20060;-77
2022/11/19 07:09:26;;;;;;;10.27;7.43;;;-1.70;99.90;;;;;;5108114;28;20047;-77
2022/11/19 07:11:52;;;;;;;8.43;6.22;;;-1.70;99.90;;;;;;5088226;28;20048;-77
2022/11/19 07:14:17;;;;;;;10.88;7.15;;;-1.70;99.90;;;;;;5106530;28;20702;-77
2022/11/19 07:16:43;;;;;;;10.27;6.72;;;-1.70;99.90;;;;;;5107583;28;20075;-77
2022/11/19 07:19:08;;;;;;;11.02;6.65;;;-1.70;99.90;;;;;;5105456;28;20080;-77
2022/11/19 07:21:35;;;;;;;12.30;7.28;;;-1.70;99.90;;;;;;5105657;28;20040;-77
2022/11/19 07:24:03;;;;;;;11.73;7.57;;;-1.70;99.90;;;;;;5105505;28;20569;-76
2022/11/19 07:26:31;;;;;;;10.07;6.95;;;-1.70;99.90;;;;;;5089542;28;20043;-77
2022/11/19 07:29:00;;;;;;;12.68;7.38;;;-1.70;99.90;;;;;;5123057;28;20043;-77
2022/11/19 07:31:26;;;;;;;10.00;7.00;;;-1.70;99.90;;;;;;5106450;28;20047;-77
2022/11/19 07:33:51;;;;;;;11.70;7.65;;;-1.70;99.90;;;;;;5106269;28;20051;-76
2022/11/19 07:36:17;;;;;;;13.32;7.75;;;-1.70;99.90;;;;;;5106351;28;20042;-77
2022/11/19 07:38:42;;;;;;;11.93;7.35;;;-1.10;99.90;;;;;;5089169;28;20051;-77
2022/11/19 07:43:53;;;;;;;9.95;7.43;;;-1.50;99.90;;;;;;5109007;28;20148;-77
2022/11/19 07:46:19;;;;;;;11.75;7.32;;;-1.60;99.90;;;;;;5092843;28;20056;-76
2022/11/19 07:48:55;;;;;;;10.80;7.35;;;-1.60;99.90;;;;;;5107656;28;20058;-77
2022/11/19 07:51:22;;;;;;;10.65;7.50;;;-1.50;99.90;;;;;;5109538;28;20079;-76
2022/11/19 07:53:48;;;;;;;10.13;6.97;;;-1.50;99.90;;;;;;5109917;28;20151;-76
2022/11/19 07:56:14;;;;;;;9.52;6.88;;;-1.20;99.90;;;;;;5110776;28;20082;-76
2022/11/19 07:58:40;;;;;;;15.18;8.00;;;-1.50;99.90;;;;;;5110578;28;20492;-76
2022/11/19 08:01:12;;;;;;;9.98;7.03;;;-1.50;99.90;;;;;;5110890;28;20055;-76
2022/11/19 08:03:38;;;;;;;;;;;-1.50;99.90;;;;;;5109464;28;20051;-76
2022/11/19 08:06:07;;;;;;;10.98;7.45;;;-1.50;99.90;;;;;;5110167;28;20285;-76
2022/11/19 08:08:33;;;;;;;10.98;7.63;;;-1.40;99.90;;;;;;5092393;28;20472;-76
2022/11/19 08:11:04;;;;;;;10.13;7.35;;;-1.40;99.90;;;;;;5108760;28;20047;-77
2022/11/19 08:13:33;;;;;;;11.35;7.68;;;-1.40;99.90;;;;;;5110639;28;20056;-77
2022/11/19 08:16:03;;;;;;;10.10;7.15;;;-1.40;99.90;;;;;;5107307;28;20055;-77
2022/11/19 08:18:29;;;;;;;11.95;7.80;;;-1.30;99.90;;;;;;5092287;28;20051;-77
2022/11/19 08:21:01;;;;;;;10.93;7.53;;;-1.30;99.90;;;;;;5110184;28;20043;-77
2022/11/19 08:23:26;;;;;;;10.25;7.15;;;-1.30;99.90;;;;;;5110529;28;20044;-77
2022/11/19 08:25:52;;;;;;;10.73;7.20;;;-1.30;99.90;;;;;;5109577;28;20039;-77
2022/11/19 08:28:21;;;;;;;11.05;7.28;;;-1.20;99.90;;;;;;5109396;28;20493;-77
2022/11/19 08:30:49;;;;;;;11.05;7.90;;;-1.20;99.90;;;;;;5108314;28;20047;-77
2022/11/19 08:33:14;;;;;;;12.85;8.38;;;-1.20;99.90;;;;;;5110075;28;20043;-76
2022/11/19 08:35:40;;;;;;;13.10;9.32;;;-1.20;99.90;;;;;;5109893;28;20036;-76
2022/11/19 08:38:05;;;;;;;10.88;7.20;;;-1.10;99.90;;;;;;5091459;28;20385;-76
2022/11/19 08:40:31;;;;;;;11.00;7.68;;;-1.10;99.90;;;;;;5108866;28;20039;-76
2022/11/19 08:42:59;;;;;;;10.80;7.07;;;-1.00;99.90;;;;;;5109298;28;20043;-77
2022/11/19 08:45:37;;;;;;;14.75;6.93;;;-1.10;99.90;;;;;;5110298;28;20054;-77
2022/11/19 08:48:09;;;;;;;11.70;8.02;;;-1.00;99.90;;;;;;5109217;28;20059;-78
2022/11/19 08:50:34;;;;;;;13.50;8.10;;;-1.00;99.90;;;;;;5108683;28;20048;-78
2022/11/19 08:53:02;;;;;;;12.65;9.15;;;-0.90;99.90;;;;;;5109833;28;20050;-78
2022/11/19 08:55:29;;;;;;;98.40;52.13;;;-0.70;99.90;;;;;;5107766;28;20126;-78
2022/11/19 08:58:06;;;;;;;16.88;10.85;;;-0.80;99.90;;;;;;5107921;28;20055;-78
2022/11/19 09:00:35;;;;;;;12.70;9.00;;;-0.70;99.90;;;;;;5109606;28;20169;-78
2022/11/19 09:03:00;;;;;;;9.27;7.07;;;-0.70;99.90;;;;;;5109173;28;20501;-78
2022/11/19 09:05:27;;;;;;;11.07;6.97;;;-0.70;99.90;;;;;;5107351;28;20044;-78
2022/11/19 09:07:56;;;;;;;10.35;7.18;;;-0.70;99.90;;;;;;5108263;28;20051;-77
2022/11/19 09:10:23;;;;;;;10.48;7.35;;;-0.60;99.90;;;;;;5106314;28;20044;-78
2022/11/19 09:12:53;;;;;;;11.10;7.40;;;-0.40;99.90;;;;;;5107617;28;20516;-78
2022/11/19 09:15:19;;;;;;;11.48;7.03;;;-0.70;99.90;;;;;;5100301;28;20054;-78
2022/11/19 09:17:45;;;;;;;28.05;20.52;;;0.20;99.90;;;;;;5102655;28;20110;-78
2022/11/19 09:20:11;;;;;;;17.55;14.23;;;-0.10;99.90;;;;;;5108485;27;20047;-78
2022/11/19 09:22:39;;;;;;;9.93;7.07;;;0.00;99.90;;;;;;5106115;28;20409;-77
2022/11/19 09:25:15;;;;;;;9.82;6.78;;;-0.20;99.90;;;;;;5111393;28;20500;-78
2022/11/19 09:27:43;;;;;;;9.25;7.05;;;-0.10;99.90;;;;;;5105892;27;20405;-79
2022/11/19 09:30:11;;;;;;;10.68;7.65;;;0.20;99.90;;;;;;5108357;27;20048;-80
2022/11/19 09:32:39;;;;;;;8.77;6.28;;;0.30;99.90;;;;;;5109361;28;20061;-79
2022/11/19 09:35:14;;;;;;;8.48;6.40;;;0.50;99.90;;;;;;5109024;28;20048;-78
2022/11/19 09:37:40;;;;;;;10.23;9.00;;;0.50;99.90;;;;;;5109657;27;20063;-78
2022/11/19 09:40:09;;;;;;;9.90;7.53;;;0.30;99.90;;;;;;5107602;27;20075;-79
2022/11/19 09:42:49;;;;;;;9.05;7.15;;;0.50;99.90;;;;;;5107492;28;20043;-80
2022/11/19 09:45:21;;;;;;;9.10;6.15;;;1.30;99.90;;;;;;5109200;28;20505;-78
2022/11/19 09:48:06;;;;;;;9.20;6.50;;;0.80;99.90;;;;;;5108572;28;20051;-80
2022/11/19 09:50:47;;;;;;;29.40;21.30;;;0.60;99.90;;;;;;5106042;28;20406;-80
2022/11/19 09:53:17;;;;;;;14.45;11.43;;;0.70;99.90;;;;;;5106742;28;20051;-88
2022/11/19 09:55:45;;;;;;;14.93;12.02;;;0.70;99.90;;;;;;5107183;28;20130;-81
2022/11/19 09:58:48;;;;;;;11.73;9.98;;;0.80;99.90;;;;;;5105729;28;20044;-81
2022/11/19 10:01:16;;;;;;;8.25;6.53;;;0.90;99.90;;;;;;5082701;28;20147;-81
2022/11/19 10:03:51;;;;;;;10.18;6.85;;;0.90;99.90;;;;;;5069967;28;20766;-80
2022/11/19 10:06:24;;;;;;;10.18;7.00;;;1.00;99.90;;;;;;5069770;28;20151;-80
2022/11/19 10:09:15;;;;;;;11.82;7.70;;;1.00;99.90;;;;;;5087423;28;20131;-81
2022/11/19 10:12:24;;;;;;;9.32;7.63;;;1.10;99.90;;;;;;5103111;28;20043;-80
2022/11/19 10:15:04;;;;;;;11.32;8.60;;;1.10;99.90;;;;;;5106060;28;20050;-81
2022/11/19 10:18:06;;;;;;;9.75;6.78;;;1.20;99.90;;;;;;5105761;28;20394;-80
2022/11/19 10:20:59;;;;;;;9.18;6.32;;;1.20;99.90;;;;;;5081288;28;20252;-81
2022/11/19 10:23:49;;;;;;;9.10;6.47;;;1.30;99.90;;;;;;5096541;28;20543;-80
2022/11/19 10:26:18;;;;;;;8.85;6.03;;;0.10;99.90;;;;;;5106340;28;20047;-79
2022/11/19 10:28:57;;;;;;;8.32;6.18;;;1.40;99.90;;;;;;5106545;28;20051;-80
2022/11/19 10:31:36;;;;;;;9.73;5.88;;;1.50;99.90;;;;;;5106759;28;20047;-81
2022/11/19 10:34:15;;;;;;;9.48;6.57;;;1.50;99.90;;;;;;5107935;28;20082;-81
2022/11/19 10:36:49;;;;;;;8.45;6.22;;;1.60;99.90;;;;;;5106757;28;20047;-81
2022/11/19 10:39:18;;;;;;;7.63;5.85;;;1.60;99.90;;;;;;5108416;28;20051;-82
2022/11/19 10:41:57;;;;;;;8.02;5.93;;;1.60;99.90;;;;;;5106286;28;20051;-80
2022/11/19 10:44:39;;;;;;;7.88;6.15;;;1.60;99.90;;;;;;5104608;28;20043;-81
2022/11/19 10:47:11;;;;;;;;;;;1.70;99.90;;;;;;5107051;28;20769;-81
2022/11/19 10:49:40;;;;;;;10.32;9.00;;;1.80;99.90;;;;;;5106215;28;19919;-82
2022/11/19 10:52:19;;;;;;;7.90;6.22;;;1.90;99.90;;;;;;5104479;28;20043;-81
2022/11/19 10:54:46;;;;;;;8.25;6.03;;;1.90;99.90;;;;;;5107411;28;20399;-82
2022/11/19 10:57:16;;;;;;;7.10;5.85;;;1.90;99.90;;;;;;5105388;28;20382;-82
2022/11/19 10:59:42;;;;;;;7.30;5.22;;;2.00;99.90;;;;;;5107434;28;20411;-81
2022/11/19 11:02:32;;;;;;;6.97;6.18;;;2.00;99.90;;;;;;5105392;28;20118;-82
2022/11/19 11:05:07;;;;;;;8.02;6.15;;;2.10;99.90;;;;;;5106650;28;20108;-81
2022/11/19 11:07:46;;;;;;;7.53;6.10;;;2.20;99.90;;;;;;5107391;28;20043;-83
2022/11/19 11:10:35;;;;;;;69.97;38.28;;;2.30;99.90;;;;;;5104768;28;20062;-82
2022/11/19 11:16:26;;;;;;;6.82;5.97;;;2.30;99.90;;;;;;5085334;28;20052;-83
2022/11/19 11:18:55;;;;;;;8.10;6.28;;;2.30;99.90;;;;;;5087813;28;20109;-82
2022/11/19 11:21:37;;;;;;;7.05;6.28;;;2.30;99.90;;;;;;5089837;28;20052;-82
2022/11/19 11:24:20;;;;;;;10.35;9.05;;;2.30;99.90;;;;;;5088165;28;20553;-82
2022/11/19 11:26:45;;;;;;;7.55;6.38;;;1.40;99.90;;;;;;5111070;27;20043;-82
2022/11/19 11:29:11;;;;;;;10.07;6.55;;;2.50;99.90;;;;;;5090875;28;20048;-83
2022/11/19 11:31:39;;;;;;;6.50;5.57;;;2.50;99.90;;;;;;5110053;28;20562;-82
2022/11/19 11:34:13;;;;;;;6.97;5.82;;;2.50;99.90;;;;;;5109685;28;20131;-83
2022/11/19 11:36:39;;;;;;;9.48;5.70;;;2.60;99.90;;;;;;5109786;27;20413;-83
2022/11/19 11:39:05;;;;;;;6.57;5.63;;;2.60;99.90;;;;;;5108460;28;20127;-82
2022/11/19 11:41:38;;;;;;;8.18;5.88;;;2.60;99.90;;;;;;5092067;28;20085;-83
2022/11/19 11:44:14;;;;;;;7.47;5.78;;;2.60;99.90;;;;;;5110327;28;20078;-82
2022/11/19 11:47:08;;;;;;;6.38;5.63;;;2.70;99.90;;;;;;5110199;28;20464;-83
2022/11/19 11:49:35;;;;;;;7.65;5.45;;;2.70;99.90;;;;;;5109000;28;20055;-83
2022/11/19 11:52:10;;;;;;;7.03;5.50;;;2.70;99.90;;;;;;5109071;28;20062;-83
2022/11/19 11:54:37;;;;;;;6.03;5.03;;;2.70;99.90;;;;;;5109202;28;20075;-83
2022/11/19 11:57:25;;;;;;;45.17;29.63;;;2.80;99.90;;;;;;5109069;28;20039;-82
2022/11/19 11:59:51;;;;;;;9.88;8.88;;;2.80;99.90;;;;;;5109221;28;20055;-82
2022/11/19 12:02:29;;;;;;;7.63;6.22;;;2.80;99.90;;;;;;5107512;28;20056;-82
2022/11/19 12:04:57;;;;;;;9.00;7.70;;;2.90;99.90;;;;;;5088269;28;20036;-82
2022/11/19 12:07:42;;;;;;;7.97;7.18;;;2.90;99.90;;;;;;5109263;28;20055;-83
2022/11/19 12:10:27;;;;;;;6.15;5.40;;;2.90;99.90;;;;;;5108874;28;20052;-83
2022/11/19 12:13:05;;;;;;;6.10;5.25;;;3.00;99.90;;;;;;5089248;28;20056;-82
2022/11/19 12:15:48;;;;;;;6.38;5.60;;;3.00;99.90;;;;;;5102786;28;20044;-82
2022/11/19 12:18:41;;;;;;;7.22;5.95;;;3.10;99.90;;;;;;5109517;28;20396;-81
2022/11/19 12:21:16;;;;;;;6.65;5.55;;;3.10;99.90;;;;;;5091917;28;20123;-82
2022/11/19 12:24:17;;;;;;;7.72;6.15;;;3.10;99.90;;;;;;5108301;28;20051;-84
2022/11/19 12:26:51;;;;;;;7.20;6.07;;;3.10;99.90;;;;;;5105297;28;20044;-84
2022/11/19 12:30:00;;;;;;;7.28;5.90;;;3.20;99.90;;;;;;5089227;28;20544;-83
2022/11/19 12:33:13;;;;;;;8.05;6.35;;;3.30;99.90;;;;;;5107227;28;20497;-83
2022/11/19 12:35:44;;;;;;;7.18;5.97;;;3.40;99.90;;;;;;5053243;28;20082;-83
2022/11/19 12:38:34;;;;;;;7.57;6.25;;;3.50;99.90;;;;;;5070835;28;20101;-84
2022/11/19 12:41:21;;;;;;;7.82;6.20;;;3.50;99.90;;;;;;5096831;28;20789;-83
2022/11/19 12:43:56;;;;;;;6.07;5.28;;;3.40;99.90;;;;;;5105399;28;20036;-82
2022/11/19 12:46:48;;;;;;;6.70;5.70;;;3.30;99.90;;;;;;5106914;28;20043;-84
2022/11/19 12:49:22;;;;;;;8.80;6.35;;;3.30;99.90;;;;;;5100329;28;20044;-83
2022/11/19 12:51:59;;;;;;;6.35;5.15;;;3.30;99.90;;;;;;5100609;28;20465;-83
2022/11/19 12:54:34;;;;;;;7.18;5.05;;;3.20;99.90;;;;;;5108067;28;20490;-83
2022/11/19 12:57:37;;;;;;;6.65;5.25;;;3.20;99.90;;;;;;5090220;28;20046;-83
2022/11/19 13:00:23;;;;;;;6.40;5.03;;;3.20;99.90;;;;;;5108758;28;20467;-83
2022/11/19 13:03:07;;;;;;;6.78;5.68;;;3.20;99.90;;;;;;5107645;28;20047;-84
2022/11/19 13:05:51;;;;;;;5.93;4.72;;;3.20;99.90;;;;;;5107912;28;20083;-84
2022/11/19 13:08:37;;;;;;;6.82;5.38;;;3.20;99.90;;;;;;5107772;28;20120;-83
2022/11/19 13:11:08;;;;;;;5.88;5.18;;;3.20;99.90;;;;;;5109046;28;20052;-84
2022/11/19 13:13:45;;;;;;;5.95;5.15;;;3.10;99.90;;;;;;5107905;28;20066;-83
2022/11/19 13:16:20;;;;;;;6.97;4.70;;;3.10;99.90;;;;;;5108457;28;20361;-85
2022/11/19 13:18:49;;;;;;;6.85;5.40;;;3.10;99.90;;;;;;5108537;28;20097;-83
2022/11/19 13:21:24;;;;;;;6.32;4.97;;;3.10;99.90;;;;;;5109008;28;20557;-83
2022/11/19 13:23:52;;;;;;;6.88;5.10;;;3.20;99.90;;;;;;5107762;28;20051;-83
2022/11/19 13:26:25;;;;;;;5.45;4.90;;;3.10;99.90;;;;;;5090710;28;20054;-83
2022/11/19 13:28:57;;;;;;;5.35;4.85;;;3.00;99.90;;;;;;5107043;28;20066;-83
2022/11/19 13:31:27;;;;;;;8.90;5.53;;;3.00;99.90;;;;;;5107534;28;20043;-82
2022/11/19 13:34:01;;;;;;;6.03;4.85;;;3.00;99.90;;;;;;5090462;28;20152;-82
2022/11/19 13:36:40;;;;;;;7.63;5.30;;;3.00;99.90;;;;;;5107703;28;20051;-82
2022/11/19 13:39:32;;;;;;;7.15;4.88;;;2.90;99.90;;;;;;5106757;28;20073;-82